PWSweather.com
Personal Weather Stations
Station Observations
SD92115WX
El Cerrito Stoneybluff, San Diego, CA 92115

El Cerrito StoneybluffSan Diego, CA 92115

Lat: 32.754096, Lon: -117.066705

Elevation: 420

Station Type: Davis Vantage Vue

http://stoneybluff.com

High Low Average
Temperature 64.6°F18.1°C 50.7°F10.4°C 56.2°F13.4°C
Dew Point 55.2°F12.9°C 48.2°F9.0°C 51.6°F10.9°C
Winds 9.6 mph 15.4 kmh Calm Calm 2.0 mph S3.2 kmh S
Wind Gusts 15.9 mph25.6 kmh -- 4.0 mph6.4 kmh
Humidity 93% 67% 85%
Pressure 30.05 in1017.6 mb 29.94 in1013.9 mb -
Precipitation 0.14 in3.6 mm - -
Hour Temp Dew Point Humidity Winds Wind Gusts Pressure Precip Precip Rate Daily Precip Total
12:04 AM 51.6°F10.9°C 49.1°F9.5°C 91% Calm Calm -- 29.97 in1014.9 mb 0.00 in0.0 mm 0.00 in0.0 mm 0.00 in0.0 mm
12:09 AM 51.6°F10.9°C 49.1°F9.5°C 91% Calm Calm -- 29.97 in1014.9 mb 0.00 in0.0 mm 0.00 in0.0 mm 0.00 in0.0 mm
12:14 AM 51.8°F11.0°C 49.6°F9.8°C 92% Calm Calm -- 29.97 in1014.9 mb 0.00 in0.0 mm 0.00 in0.0 mm 0.00 in0.0 mm
12:19 AM 52.0°F11.1°C 49.6°F9.8°C 92% Calm Calm -- 29.96 in1014.6 mb 0.00 in0.0 mm 0.00 in0.0 mm 0.00 in0.0 mm
12:24 AM 52.0°F11.1°C 49.5°F9.7°C 91% Calm Calm -- 29.96 in1014.6 mb 0.00 in0.0 mm 0.00 in0.0 mm 0.00 in0.0 mm
12:29 AM 51.8°F11.0°C 49.3°F9.6°C 91% Calm Calm -- 29.96 in1014.6 mb 0.00 in0.0 mm 0.00 in0.0 mm 0.00 in0.0 mm
12:34 AM 51.4°F10.8°C 48.9°F9.4°C 91% Calm Calm -- 29.96 in1014.6 mb 0.00 in0.0 mm 0.00 in0.0 mm 0.00 in0.0 mm
12:39 AM 51.3°F10.7°C 48.7°F9.3°C 91% Calm Calm -- 29.96 in1014.6 mb 0.00 in0.0 mm 0.00 in0.0 mm 0.00 in0.0 mm
12:44 AM 50.9°F10.5°C 48.4°F9.1°C 91% Calm Calm -- 29.96 in1014.6 mb 0.00 in0.0 mm 0.00 in0.0 mm 0.00 in0.0 mm
12:49 AM 50.7°F10.4°C 48.2°F9.0°C 91% Calm Calm -- 29.96 in1014.6 mb 0.00 in0.0 mm 0.00 in0.0 mm 0.00 in0.0 mm
12:54 AM 50.7°F10.4°C 48.6°F9.2°C 92% Calm Calm -- 29.96 in1014.6 mb 0.00 in0.0 mm 0.00 in0.0 mm 0.00 in0.0 mm
12:59 AM 50.7°F10.4°C 48.6°F9.2°C 92% Calm Calm -- 29.96 in1014.6 mb 0.00 in0.0 mm 0.00 in0.0 mm 0.00 in0.0 mm
01:04 AM 50.7°F10.4°C 48.6°F9.2°C 92% Calm Calm 1.1 mph1.8 kmh 29.96 in1014.6 mb 0.00 in0.0 mm 0.00 in0.0 mm 0.00 in0.0 mm
01:09 AM 51.1°F10.6°C 48.9°F9.4°C 92% Calm Calm -- 29.96 in1014.6 mb 0.00 in0.0 mm 0.00 in0.0 mm 0.00 in0.0 mm
01:14 AM 51.1°F10.6°C 48.9°F9.4°C 92% 0.2 mph ENE0.3 kmh ENE 1.1 mph1.8 kmh 29.96 in1014.6 mb 0.00 in0.0 mm 0.00 in0.0 mm 0.00 in0.0 mm
01:19 AM 51.1°F10.6°C 48.9°F9.4°C 92% Calm Calm -- 29.96 in1014.6 mb 0.00 in0.0 mm 0.00 in0.0 mm 0.00 in0.0 mm
01:24 AM 50.9°F10.5°C 48.7°F9.3°C 92% Calm Calm -- 29.96 in1014.6 mb 0.00 in0.0 mm 0.00 in0.0 mm 0.00 in0.0 mm
01:29 AM 51.1°F10.6°C 48.9°F9.4°C 92% Calm Calm 1.1 mph1.8 kmh 29.96 in1014.6 mb 0.00 in0.0 mm 0.00 in0.0 mm 0.00 in0.0 mm
01:34 AM 51.1°F10.6°C 48.9°F9.4°C 92% Calm Calm -- 29.96 in1014.6 mb 0.00 in0.0 mm 0.00 in0.0 mm 0.00 in0.0 mm
01:39 AM 51.3°F10.7°C 49.1°F9.5°C 92% Calm Calm -- 29.96 in1014.6 mb 0.00 in0.0 mm 0.00 in0.0 mm 0.00 in0.0 mm
01:44 AM 51.4°F10.8°C 49.5°F9.7°C 93% Calm Calm -- 29.96 in1014.6 mb 0.00 in0.0 mm 0.00 in0.0 mm 0.00 in0.0 mm
01:49 AM 51.8°F11.0°C 49.8°F9.9°C 93% Calm Calm -- 29.96 in1014.6 mb 0.00 in0.0 mm 0.00 in0.0 mm 0.00 in0.0 mm
01:54 AM 51.8°F11.0°C 49.6°F9.8°C 92% Calm Calm -- 29.95 in1014.2 mb 0.00 in0.0 mm 0.00 in0.0 mm 0.00 in0.0 mm
01:59 AM 52.0°F11.1°C 50.0°F10.0°C 93% Calm Calm -- 29.95 in1014.2 mb 0.00 in0.0 mm 0.00 in0.0 mm 0.00 in0.0 mm
02:04 AM 52.0°F11.1°C 49.6°F9.8°C 92% Calm Calm -- 29.95 in1014.2 mb 0.00 in0.0 mm 0.00 in0.0 mm 0.00 in0.0 mm
02:09 AM 52.0°F11.1°C 49.6°F9.8°C 92% Calm Calm -- 29.95 in1014.2 mb 0.00 in0.0 mm 0.00 in0.0 mm 0.00 in0.0 mm
02:14 AM 52.0°F11.1°C 50.0°F10.0°C 93% Calm Calm -- 29.95 in1014.2 mb 0.00 in0.0 mm 0.00 in0.0 mm 0.00 in0.0 mm
02:19 AM 52.2°F11.2°C 49.8°F9.9°C 92% Calm Calm -- 29.95 in1014.2 mb 0.00 in0.0 mm 0.00 in0.0 mm 0.00 in0.0 mm
02:24 AM 52.2°F11.2°C 49.8°F9.9°C 92% Calm Calm -- 29.95 in1014.2 mb 0.00 in0.0 mm 0.00 in0.0 mm 0.00 in0.0 mm
02:29 AM 52.2°F11.2°C 49.8°F9.9°C 92% Calm Calm -- 29.95 in1014.2 mb 0.00 in0.0 mm 0.00 in0.0 mm 0.00 in0.0 mm
02:34 AM 52.3°F11.3°C 50.0°F10.0°C 92% Calm Calm -- 29.95 in1014.2 mb 0.00 in0.0 mm 0.00 in0.0 mm 0.00 in0.0 mm
02:39 AM 52.3°F11.3°C 50.4°F10.2°C 93% Calm Calm -- 29.95 in1014.2 mb 0.00 in0.0 mm 0.00 in0.0 mm 0.00 in0.0 mm
02:44 AM 52.5°F11.4°C 50.2°F10.1°C 92% Calm Calm -- 29.95 in1014.2 mb 0.00 in0.0 mm 0.00 in0.0 mm 0.00 in0.0 mm
02:49 AM 52.7°F11.5°C 50.4°F10.2°C 92% Calm Calm -- 29.95 in1014.2 mb 0.00 in0.0 mm 0.00 in0.0 mm 0.00 in0.0 mm
02:54 AM 52.9°F11.6°C 50.5°F10.3°C 92% Calm Calm -- 29.94 in1013.9 mb 0.00 in0.0 mm 0.00 in0.0 mm 0.00 in0.0 mm
02:59 AM 52.9°F11.6°C 50.5°F10.3°C 92% Calm Calm 1.1 mph1.8 kmh 29.94 in1013.9 mb 0.00 in0.0 mm 0.00 in0.0 mm 0.00 in0.0 mm
03:04 AM 53.1°F11.7°C 50.7°F10.4°C 92% Calm Calm -- 29.95 in1014.2 mb 0.00 in0.0 mm 0.00 in0.0 mm 0.00 in0.0 mm
03:09 AM 53.1°F11.7°C 50.7°F10.4°C 92% Calm Calm -- 29.95 in1014.2 mb 0.00 in0.0 mm 0.00 in0.0 mm 0.00 in0.0 mm
03:14 AM 53.1°F11.7°C 50.7°F10.4°C 92% Calm Calm -- 29.95 in1014.2 mb 0.00 in0.0 mm 0.00 in0.0 mm 0.00 in0.0 mm
03:19 AM 53.1°F11.7°C 50.7°F10.4°C 92% Calm Calm -- 29.95 in1014.2 mb 0.00 in0.0 mm 0.00 in0.0 mm 0.00 in0.0 mm
03:24 AM 53.1°F11.7°C 50.7°F10.4°C 92% Calm Calm -- 29.95 in1014.2 mb 0.00 in0.0 mm 0.00 in0.0 mm 0.00 in0.0 mm
03:29 AM 53.1°F11.7°C 50.7°F10.4°C 92% Calm Calm -- 29.95 in1014.2 mb 0.00 in0.0 mm 0.00 in0.0 mm 0.00 in0.0 mm
03:34 AM 53.1°F11.7°C 50.7°F10.4°C 92% Calm Calm -- 29.95 in1014.2 mb 0.00 in0.0 mm 0.00 in0.0 mm 0.00 in0.0 mm
03:39 AM 53.2°F11.8°C 50.9°F10.5°C 92% Calm Calm -- 29.95 in1014.2 mb 0.00 in0.0 mm 0.00 in0.0 mm 0.00 in0.0 mm
03:44 AM 53.2°F11.8°C 50.9°F10.5°C 92% Calm Calm -- 29.95 in1014.2 mb 0.00 in0.0 mm 0.00 in0.0 mm 0.00 in0.0 mm
03:49 AM 53.4°F11.9°C 51.1°F10.6°C 92% Calm Calm -- 29.95 in1014.2 mb 0.00 in0.0 mm 0.00 in0.0 mm 0.00 in0.0 mm
03:54 AM 53.4°F11.9°C 51.1°F10.6°C 92% Calm Calm -- 29.95 in1014.2 mb 0.00 in0.0 mm 0.00 in0.0 mm 0.00 in0.0 mm
03:59 AM 53.4°F11.9°C 50.9°F10.5°C 91% Calm Calm -- 29.95 in1014.2 mb 0.00 in0.0 mm 0.00 in0.0 mm 0.00 in0.0 mm
04:04 AM 53.6°F12.0°C 51.1°F10.6°C 91% Calm Calm -- 29.95 in1014.2 mb 0.00 in0.0 mm 0.00 in0.0 mm 0.00 in0.0 mm
04:09 AM 53.6°F12.0°C 51.1°F10.6°C 91% Calm Calm -- 29.95 in1014.2 mb 0.00 in0.0 mm 0.00 in0.0 mm 0.00 in0.0 mm
04:14 AM 53.6°F12.0°C 51.1°F10.6°C 91% Calm Calm -- 29.95 in1014.2 mb 0.00 in0.0 mm 0.00 in0.0 mm 0.00 in0.0 mm
04:19 AM 53.6°F12.0°C 51.1°F10.6°C 91% Calm Calm -- 29.95 in1014.2 mb 0.00 in0.0 mm 0.00 in0.0 mm 0.00 in0.0 mm
04:24 AM 53.6°F12.0°C 51.1°F10.6°C 91% Calm Calm -- 29.95 in1014.2 mb 0.00 in0.0 mm 0.00 in0.0 mm 0.00 in0.0 mm
04:29 AM 53.8°F12.1°C 51.3°F10.7°C 91% Calm Calm -- 29.95 in1014.2 mb 0.00 in0.0 mm 0.00 in0.0 mm 0.00 in0.0 mm
04:34 AM 53.8°F12.1°C 51.3°F10.7°C 91% Calm Calm -- 29.95 in1014.2 mb 0.00 in0.0 mm 0.00 in0.0 mm 0.00 in0.0 mm
04:39 AM 53.8°F12.1°C 51.3°F10.7°C 91% Calm Calm -- 29.95 in1014.2 mb 0.00 in0.0 mm 0.00 in0.0 mm 0.00 in0.0 mm
04:44 AM 53.8°F12.1°C 51.3°F10.7°C 91% Calm Calm -- 29.95 in1014.2 mb 0.00 in0.0 mm 0.00 in0.0 mm 0.00 in0.0 mm
04:49 AM 53.8°F12.1°C 51.3°F10.7°C 91% Calm Calm -- 29.95 in1014.2 mb 0.00 in0.0 mm 0.00 in0.0 mm 0.00 in0.0 mm
04:54 AM 53.8°F12.1°C 51.3°F10.7°C 91% Calm Calm -- 29.96 in1014.6 mb 0.00 in0.0 mm 0.00 in0.0 mm 0.00 in0.0 mm
04:59 AM 53.8°F12.1°C 51.3°F10.7°C 91% Calm Calm -- 29.96 in1014.6 mb 0.00 in0.0 mm 0.00 in0.0 mm 0.00 in0.0 mm
05:04 AM 53.8°F12.1°C 51.3°F10.7°C 91% Calm Calm -- 29.96 in1014.6 mb 0.00 in0.0 mm 0.00 in0.0 mm 0.00 in0.0 mm
05:09 AM 53.8°F12.1°C 51.3°F10.7°C 91% Calm Calm -- 29.96 in1014.6 mb 0.00 in0.0 mm 0.00 in0.0 mm 0.00 in0.0 mm
05:14 AM 53.8°F12.1°C 51.3°F10.7°C 91% Calm Calm -- 29.96 in1014.6 mb 0.00 in0.0 mm 0.00 in0.0 mm 0.00 in0.0 mm
05:19 AM 53.8°F12.1°C 51.3°F10.7°C 91% Calm Calm -- 29.96 in1014.6 mb 0.00 in0.0 mm 0.00 in0.0 mm 0.00 in0.0 mm
05:24 AM 54.0°F12.2°C 51.4°F10.8°C 91% Calm Calm -- 29.96 in1014.6 mb 0.00 in0.0 mm 0.00 in0.0 mm 0.00 in0.0 mm
05:29 AM 54.0°F12.2°C 51.4°F10.8°C 91% Calm Calm -- 29.96 in1014.6 mb 0.00 in0.0 mm 0.00 in0.0 mm 0.00 in0.0 mm
05:34 AM 54.1°F12.3°C 51.6°F10.9°C 91% Calm Calm -- 29.96 in1014.6 mb 0.00 in0.0 mm 0.00 in0.0 mm 0.00 in0.0 mm
05:39 AM 54.0°F12.2°C 51.4°F10.8°C 91% Calm Calm -- 29.96 in1014.6 mb 0.00 in0.0 mm 0.00 in0.0 mm 0.00 in0.0 mm
05:44 AM 54.0°F12.2°C 51.4°F10.8°C 91% Calm Calm -- 29.96 in1014.6 mb 0.00 in0.0 mm 0.00 in0.0 mm 0.00 in0.0 mm
05:49 AM 54.1°F12.3°C 51.6°F10.9°C 91% Calm Calm -- 29.96 in1014.6 mb 0.00 in0.0 mm 0.00 in0.0 mm 0.00 in0.0 mm
05:54 AM 54.1°F12.3°C 51.6°F10.9°C 91% Calm Calm -- 29.96 in1014.6 mb 0.00 in0.0 mm 0.00 in0.0 mm 0.00 in0.0 mm
05:59 AM 54.1°F12.3°C 51.6°F10.9°C 91% Calm Calm -- 29.96 in1014.6 mb 0.00 in0.0 mm 0.00 in0.0 mm 0.00 in0.0 mm
06:04 AM 54.3°F12.4°C 51.8°F11.0°C 91% Calm Calm -- 29.96 in1014.6 mb 0.00 in0.0 mm 0.00 in0.0 mm 0.00 in0.0 mm
06:09 AM 54.3°F12.4°C 51.8°F11.0°C 91% Calm Calm -- 29.97 in1014.9 mb 0.00 in0.0 mm 0.00 in0.0 mm 0.00 in0.0 mm
06:14 AM 54.3°F12.4°C 51.8°F11.0°C 91% Calm Calm -- 29.97 in1014.9 mb 0.00 in0.0 mm 0.00 in0.0 mm 0.00 in0.0 mm
06:19 AM 54.3°F12.4°C 51.8°F11.0°C 91% 2.7 mph SW4.3 kmh SW 5.4 mph8.7 kmh 29.98 in1015.2 mb 0.00 in0.0 mm 0.00 in0.0 mm 0.00 in0.0 mm
06:24 AM 54.3°F12.4°C 51.4°F10.8°C 90% 4.5 mph SSW7.2 kmh SSW 9.6 mph15.4 kmh 29.98 in1015.2 mb 0.00 in0.0 mm 0.00 in0.0 mm 0.00 in0.0 mm
06:29 AM 54.5°F12.5°C 50.7°F10.4°C 87% 2.2 mph S3.5 kmh S 6.3 mph10.1 kmh 29.98 in1015.2 mb 0.00 in0.0 mm 0.00 in0.0 mm 0.00 in0.0 mm
06:34 AM 54.7°F12.6°C 50.2°F10.1°C 85% 1.3 mph SSE2.1 kmh SSE 3.1 mph5.0 kmh 29.98 in1015.2 mb 0.00 in0.0 mm 0.00 in0.0 mm 0.00 in0.0 mm
06:39 AM 54.9°F12.7°C 50.2°F10.1°C 84% Calm Calm 1.1 mph1.8 kmh 29.98 in1015.2 mb 0.00 in0.0 mm 0.00 in0.0 mm 0.00 in0.0 mm
06:44 AM 55.0°F12.8°C 50.0°F10.0°C 83% Calm Calm -- 29.99 in1015.6 mb 0.00 in0.0 mm 0.00 in0.0 mm 0.00 in0.0 mm
06:49 AM 55.0°F12.8°C 49.6°F9.8°C 82% Calm Calm 1.1 mph1.8 kmh 29.99 in1015.6 mb 0.00 in0.0 mm 0.00 in0.0 mm 0.00 in0.0 mm
06:54 AM 55.0°F12.8°C 49.6°F9.8°C 82% Calm Calm -- 29.99 in1015.6 mb 0.00 in0.0 mm 0.00 in0.0 mm 0.00 in0.0 mm
06:59 AM 55.6°F13.1°C 50.5°F10.3°C 83% Calm Calm 1.1 mph1.8 kmh 29.98 in1015.2 mb 0.00 in0.0 mm 0.00 in0.0 mm 0.00 in0.0 mm
07:04 AM 55.9°F13.3°C 51.3°F10.7°C 84% Calm Calm -- 29.98 in1015.2 mb 0.00 in0.0 mm 0.00 in0.0 mm 0.00 in0.0 mm
07:09 AM 56.5°F13.6°C 51.6°F10.9°C 84% Calm Calm -- 29.98 in1015.2 mb 0.00 in0.0 mm 0.00 in0.0 mm 0.00 in0.0 mm
07:14 AM 56.3°F13.5°C 50.9°F10.5°C 82% Calm Calm -- 29.98 in1015.2 mb 0.00 in0.0 mm 0.00 in0.0 mm 0.00 in0.0 mm
07:19 AM 56.5°F13.6°C 50.7°F10.4°C 81% Calm Calm 2.0 mph3.2 kmh 29.98 in1015.2 mb 0.00 in0.0 mm 0.00 in0.0 mm 0.00 in0.0 mm
07:24 AM 56.7°F13.7°C 50.5°F10.3°C 80% Calm Calm -- 29.98 in1015.2 mb 0.00 in0.0 mm 0.00 in0.0 mm 0.00 in0.0 mm
07:29 AM 56.7°F13.7°C 50.5°F10.3°C 80% Calm Calm -- 29.99 in1015.6 mb 0.00 in0.0 mm 0.00 in0.0 mm 0.00 in0.0 mm
07:34 AM 56.7°F13.7°C 50.5°F10.3°C 80% Calm Calm -- 29.99 in1015.6 mb 0.00 in0.0 mm 0.00 in0.0 mm 0.00 in0.0 mm
07:39 AM 56.7°F13.7°C 50.5°F10.3°C 80% Calm Calm 1.1 mph1.8 kmh 29.99 in1015.6 mb 0.00 in0.0 mm 0.00 in0.0 mm 0.00 in0.0 mm
07:44 AM 56.7°F13.7°C 50.9°F10.5°C 81% Calm Calm -- 30.00 in1015.9 mb 0.00 in0.0 mm 0.00 in0.0 mm 0.00 in0.0 mm
07:49 AM 56.7°F13.7°C 50.5°F10.3°C 80% 0.9 mph S1.4 kmh S 3.1 mph5.0 kmh 30.00 in1015.9 mb 0.00 in0.0 mm 0.00 in0.0 mm 0.00 in0.0 mm
07:54 AM 56.7°F13.7°C 50.2°F10.1°C 79% 1.6 mph S2.6 kmh S 6.3 mph10.1 kmh 30.00 in1015.9 mb 0.00 in0.0 mm 0.00 in0.0 mm 0.00 in0.0 mm
07:59 AM 56.8°F13.8°C 51.1°F10.6°C 81% 4.9 mph SW7.9 kmh SW 8.5 mph13.7 kmh 30.00 in1015.9 mb 0.00 in0.0 mm 0.00 in0.0 mm 0.00 in0.0 mm
08:04 AM 56.5°F13.6°C 51.4°F10.8°C 83% 1.8 mph S2.9 kmh S 7.4 mph11.9 kmh 30.00 in1015.9 mb 0.00 in0.0 mm 0.00 in0.0 mm 0.00 in0.0 mm
08:09 AM 56.1°F13.4°C 51.4°F10.8°C 84% 3.1 mph SSW5.0 kmh SSW 5.4 mph8.7 kmh 30.01 in1016.3 mb 0.00 in0.0 mm 0.00 in0.0 mm 0.00 in0.0 mm
08:14 AM 55.9°F13.3°C 51.4°F10.8°C 85% 1.8 mph SSE2.9 kmh SSE 4.3 mph6.9 kmh 30.01 in1016.3 mb 0.00 in0.0 mm 0.00 in0.0 mm 0.00 in0.0 mm
08:19 AM 55.8°F13.2°C 51.6°F10.9°C 86% Calm Calm 2.0 mph3.2 kmh 30.01 in1016.3 mb 0.00 in0.0 mm 0.00 in0.0 mm 0.00 in0.0 mm
08:24 AM 55.9°F13.3°C 52.2°F11.2°C 87% Calm Calm -- 30.01 in1016.3 mb 0.00 in0.0 mm 0.00 in0.0 mm 0.00 in0.0 mm
08:29 AM 55.9°F13.3°C 52.5°F11.4°C 88% Calm Calm 1.1 mph1.8 kmh 30.01 in1016.3 mb 0.00 in0.0 mm 0.00 in0.0 mm 0.00 in0.0 mm
08:34 AM 56.1°F13.4°C 52.7°F11.5°C 88% Calm Calm -- 30.01 in1016.3 mb 0.00 in0.0 mm 0.00 in0.0 mm 0.00 in0.0 mm
08:39 AM 56.3°F13.5°C 53.1°F11.7°C 89% Calm Calm -- 30.01 in1016.3 mb 0.00 in0.0 mm 0.00 in0.0 mm 0.00 in0.0 mm
08:44 AM 56.5°F13.6°C 53.2°F11.8°C 89% Calm Calm 1.1 mph1.8 kmh 30.01 in1016.3 mb 0.00 in0.0 mm 0.00 in0.0 mm 0.00 in0.0 mm
08:49 AM 56.7°F13.7°C 53.4°F11.9°C 89% Calm Calm 1.1 mph1.8 kmh 30.01 in1016.3 mb 0.00 in0.0 mm 0.00 in0.0 mm 0.00 in0.0 mm
08:54 AM 57.2°F14.0°C 54.0°F12.2°C 89% 0.4 mph E0.6 kmh E 2.0 mph3.2 kmh 30.00 in1015.9 mb 0.00 in0.0 mm 0.00 in0.0 mm 0.00 in0.0 mm
08:59 AM 57.4°F14.1°C 54.1°F12.3°C 89% 0.2 mph SSW0.3 kmh SSW 2.0 mph3.2 kmh 30.00 in1015.9 mb 0.00 in0.0 mm 0.00 in0.0 mm 0.00 in0.0 mm
09:04 AM 57.9°F14.4°C 54.3°F12.4°C 88% Calm Calm 1.1 mph1.8 kmh 30.01 in1016.3 mb 0.00 in0.0 mm 0.00 in0.0 mm 0.00 in0.0 mm
09:09 AM 57.7°F14.3°C 54.0°F12.2°C 87% Calm Calm 1.1 mph1.8 kmh 30.01 in1016.3 mb 0.00 in0.0 mm 0.00 in0.0 mm 0.00 in0.0 mm
09:14 AM 58.1°F14.5°C 54.0°F12.2°C 86% 0.2 mph E0.3 kmh E 1.1 mph1.8 kmh 30.01 in1016.3 mb 0.00 in0.0 mm 0.00 in0.0 mm 0.00 in0.0 mm
09:19 AM 58.1°F14.5°C 53.6°F12.0°C 85% Calm Calm 3.1 mph5.0 kmh 30.01 in1016.3 mb 0.00 in0.0 mm 0.00 in0.0 mm 0.00 in0.0 mm
09:24 AM 58.3°F14.6°C 53.4°F11.9°C 84% 0.4 mph E0.6 kmh E 2.0 mph3.2 kmh 30.01 in1016.3 mb 0.00 in0.0 mm 0.00 in0.0 mm 0.00 in0.0 mm
09:29 AM 58.5°F14.7°C 53.2°F11.8°C 83% Calm Calm 1.1 mph1.8 kmh 30.01 in1016.3 mb 0.00 in0.0 mm 0.00 in0.0 mm 0.00 in0.0 mm
09:34 AM 59.0°F15.0°C 53.8°F12.1°C 83% Calm Calm 1.1 mph1.8 kmh 30.01 in1016.3 mb 0.00 in0.0 mm 0.00 in0.0 mm 0.00 in0.0 mm
09:39 AM 59.4°F15.2°C 53.6°F12.0°C 81% 0.2 mph NE0.3 kmh NE 1.1 mph1.8 kmh 30.01 in1016.3 mb 0.00 in0.0 mm 0.00 in0.0 mm 0.00 in0.0 mm
09:44 AM 59.5°F15.3°C 53.4°F11.9°C 80% Calm Calm 2.0 mph3.2 kmh 30.01 in1016.3 mb 0.00 in0.0 mm 0.00 in0.0 mm 0.00 in0.0 mm
09:49 AM 59.7°F15.4°C 53.6°F12.0°C 80% 0.2 mph SSE0.3 kmh SSE 1.1 mph1.8 kmh 30.00 in1015.9 mb 0.00 in0.0 mm 0.00 in0.0 mm 0.00 in0.0 mm
09:54 AM 60.3°F15.7°C 53.8°F12.1°C 79% 0.7 mph E1.1 kmh E 3.1 mph5.0 kmh 30.00 in1015.9 mb 0.00 in0.0 mm 0.00 in0.0 mm 0.00 in0.0 mm
09:59 AM 60.8°F16.0°C 53.6°F12.0°C 77% Calm Calm 2.0 mph3.2 kmh 30.00 in1015.9 mb 0.00 in0.0 mm 0.00 in0.0 mm 0.00 in0.0 mm
10:04 AM 61.2°F16.2°C 53.6°F12.0°C 76% Calm Calm -- 30.01 in1016.3 mb 0.00 in0.0 mm 0.00 in0.0 mm 0.00 in0.0 mm
10:09 AM 61.2°F16.2°C 53.6°F12.0°C 76% 1.1 mph SW1.8 kmh SW 3.1 mph5.0 kmh 30.01 in1016.3 mb 0.00 in0.0 mm 0.00 in0.0 mm 0.00 in0.0 mm
10:14 AM 61.2°F16.2°C 53.6°F12.0°C 76% 0.7 mph SW1.1 kmh SW 3.1 mph5.0 kmh 30.00 in1015.9 mb 0.00 in0.0 mm 0.00 in0.0 mm 0.00 in0.0 mm
10:19 AM 61.3°F16.3°C 53.4°F11.9°C 75% 0.4 mph W0.6 kmh W 3.1 mph5.0 kmh 30.00 in1015.9 mb 0.00 in0.0 mm 0.00 in0.0 mm 0.00 in0.0 mm
10:24 AM 61.9°F16.6°C 53.8°F12.1°C 75% 1.3 mph WSW2.1 kmh WSW 3.1 mph5.0 kmh 30.00 in1015.9 mb 0.00 in0.0 mm 0.00 in0.0 mm 0.00 in0.0 mm
10:29 AM 61.9°F16.6°C 53.1°F11.7°C 73% 0.4 mph SSW0.6 kmh SSW 3.1 mph5.0 kmh 30.00 in1015.9 mb 0.00 in0.0 mm 0.00 in0.0 mm 0.00 in0.0 mm
10:34 AM 61.5°F16.4°C 52.7°F11.5°C 73% 2.5 mph SW4.0 kmh SW 6.3 mph10.1 kmh 30.00 in1015.9 mb 0.00 in0.0 mm 0.00 in0.0 mm 0.00 in0.0 mm
10:39 AM 61.5°F16.4°C 53.6°F12.0°C 75% 2.2 mph SW3.5 kmh SW 6.3 mph10.1 kmh 30.00 in1015.9 mb 0.00 in0.0 mm 0.00 in0.0 mm 0.00 in0.0 mm
10:44 AM 62.4°F16.9°C 54.0°F12.2°C 74% 3.8 mph SSW6.1 kmh SSW 5.4 mph8.7 kmh 30.00 in1015.9 mb 0.00 in0.0 mm 0.00 in0.0 mm 0.00 in0.0 mm
10:49 AM 62.6°F17.0°C 53.4°F11.9°C 72% 3.6 mph S5.8 kmh S 6.3 mph10.1 kmh 30.00 in1015.9 mb 0.00 in0.0 mm 0.00 in0.0 mm 0.00 in0.0 mm
10:54 AM 62.6°F17.0°C 53.4°F11.9°C 72% 4.5 mph WSW7.2 kmh WSW 8.5 mph13.7 kmh 30.00 in1015.9 mb 0.00 in0.0 mm 0.00 in0.0 mm 0.00 in0.0 mm
10:59 AM 62.2°F16.8°C 53.4°F11.9°C 73% 2.7 mph SSW4.3 kmh SSW 7.4 mph11.9 kmh 30.00 in1015.9 mb 0.00 in0.0 mm 0.00 in0.0 mm 0.00 in0.0 mm
11:04 AM 62.4°F16.9°C 53.6°F12.0°C 73% 6.3 mph S10.1 kmh S 12.8 mph20.6 kmh 30.00 in1015.9 mb 0.00 in0.0 mm 0.00 in0.0 mm 0.00 in0.0 mm
11:09 AM 62.4°F16.9°C 54.3°F12.4°C 75% 5.1 mph SW8.2 kmh SW 11.6 mph18.7 kmh 30.00 in1015.9 mb 0.00 in0.0 mm 0.00 in0.0 mm 0.00 in0.0 mm
11:14 AM 62.8°F17.1°C 54.3°F12.4°C 74% 6.5 mph SW10.5 kmh SW 11.6 mph18.7 kmh 30.00 in1015.9 mb 0.00 in0.0 mm 0.00 in0.0 mm 0.00 in0.0 mm
11:19 AM 62.4°F16.9°C 53.6°F12.0°C 73% 6.0 mph W9.7 kmh W 11.6 mph18.7 kmh 29.99 in1015.6 mb 0.00 in0.0 mm 0.00 in0.0 mm 0.00 in0.0 mm
11:24 AM 63.0°F17.2°C 54.1°F12.3°C 73% 4.5 mph S7.2 kmh S 10.5 mph16.9 kmh 29.99 in1015.6 mb 0.00 in0.0 mm 0.00 in0.0 mm 0.00 in0.0 mm
11:29 AM 62.8°F17.1°C 53.2°F11.8°C 71% 7.8 mph SW12.6 kmh SW 11.6 mph18.7 kmh 30.00 in1015.9 mb 0.00 in0.0 mm 0.00 in0.0 mm 0.00 in0.0 mm
11:34 AM 62.4°F16.9°C 53.2°F11.8°C 72% 6.0 mph WSW9.7 kmh WSW 10.5 mph16.9 kmh 29.99 in1015.6 mb 0.00 in0.0 mm 0.00 in0.0 mm 0.00 in0.0 mm
11:39 AM 62.4°F16.9°C 53.6°F12.0°C 73% 6.0 mph S9.7 kmh S 13.9 mph22.4 kmh 29.99 in1015.6 mb 0.00 in0.0 mm 0.00 in0.0 mm 0.00 in0.0 mm
11:44 AM 63.1°F17.3°C 54.7°F12.6°C 74% 7.2 mph SW11.6 kmh SW 13.9 mph22.4 kmh 29.98 in1015.2 mb 0.00 in0.0 mm 0.00 in0.0 mm 0.00 in0.0 mm
11:49 AM 63.1°F17.3°C 54.3°F12.4°C 73% 8.1 mph SW13.0 kmh SW 13.9 mph22.4 kmh 29.98 in1015.2 mb 0.00 in0.0 mm 0.00 in0.0 mm 0.00 in0.0 mm
11:54 AM 63.1°F17.3°C 54.3°F12.4°C 73% 5.1 mph WSW8.2 kmh WSW 12.8 mph20.6 kmh 29.98 in1015.2 mb 0.00 in0.0 mm 0.00 in0.0 mm 0.00 in0.0 mm
11:59 AM 63.7°F17.6°C 54.1°F12.3°C 71% 6.3 mph SSW10.1 kmh SSW 11.6 mph18.7 kmh 29.98 in1015.2 mb 0.00 in0.0 mm 0.00 in0.0 mm 0.00 in0.0 mm
12:04 PM 64.0°F17.8°C 54.5°F12.5°C 71% 5.8 mph SE9.3 kmh SE 10.5 mph16.9 kmh 29.98 in1015.2 mb 0.00 in0.0 mm 0.00 in0.0 mm 0.00 in0.0 mm
12:09 PM 64.2°F17.9°C 54.3°F12.4°C 70% 6.9 mph SW11.1 kmh SW 12.8 mph20.6 kmh 29.97 in1014.9 mb 0.00 in0.0 mm 0.00 in0.0 mm 0.00 in0.0 mm
12:14 PM 64.2°F17.9°C 54.3°F12.4°C 70% 6.9 mph SW11.1 kmh SW 12.8 mph20.6 kmh 29.97 in1014.9 mb 0.00 in0.0 mm 0.00 in0.0 mm 0.00 in0.0 mm
12:19 PM 64.2°F17.9°C 53.8°F12.1°C 69% 8.1 mph W13.0 kmh W 13.9 mph22.4 kmh 29.97 in1014.9 mb 0.00 in0.0 mm 0.00 in0.0 mm 0.00 in0.0 mm
12:24 PM 64.2°F17.9°C 53.8°F12.1°C 69% 8.3 mph SSW13.4 kmh SSW 14.8 mph23.8 kmh 29.98 in1015.2 mb 0.00 in0.0 mm 0.00 in0.0 mm 0.00 in0.0 mm
12:29 PM 64.0°F17.8°C 54.5°F12.5°C 71% 8.3 mph SSW13.4 kmh SSW 14.8 mph23.8 kmh 29.97 in1014.9 mb 0.00 in0.0 mm 0.00 in0.0 mm 0.00 in0.0 mm
12:34 PM 64.6°F18.1°C 55.0°F12.8°C 71% 8.1 mph SSW13.0 kmh SSW 15.9 mph25.6 kmh 29.97 in1014.9 mb 0.00 in0.0 mm 0.00 in0.0 mm 0.00 in0.0 mm
12:39 PM 64.6°F18.1°C 55.0°F12.8°C 71% 9.2 mph SSE14.8 kmh SSE 13.9 mph22.4 kmh 29.97 in1014.9 mb 0.00 in0.0 mm 0.00 in0.0 mm 0.00 in0.0 mm
12:44 PM 64.6°F18.1°C 55.0°F12.8°C 71% 8.3 mph SSW13.4 kmh SSW 15.9 mph25.6 kmh 29.97 in1014.9 mb 0.00 in0.0 mm 0.00 in0.0 mm 0.00 in0.0 mm
12:49 PM 64.0°F17.8°C 54.9°F12.7°C 72% 8.3 mph SW13.4 kmh SW 14.8 mph23.8 kmh 29.97 in1014.9 mb 0.00 in0.0 mm 0.00 in0.0 mm 0.00 in0.0 mm
12:54 PM 64.0°F17.8°C 54.9°F12.7°C 72% 8.3 mph SW13.4 kmh SW 14.8 mph23.8 kmh 29.97 in1014.9 mb 0.00 in0.0 mm 0.00 in0.0 mm 0.00 in0.0 mm
12:59 PM 64.0°F17.8°C 54.9°F12.7°C 72% 9.6 mph SW15.4 kmh SW 14.8 mph23.8 kmh 29.97 in1014.9 mb 0.00 in0.0 mm 0.00 in0.0 mm 0.00 in0.0 mm
01:04 PM 64.0°F17.8°C 55.2°F12.9°C 73% 6.3 mph WSW10.1 kmh WSW 12.8 mph20.6 kmh 29.97 in1014.9 mb 0.00 in0.0 mm 0.00 in0.0 mm 0.00 in0.0 mm
01:09 PM 63.7°F17.6°C 54.5°F12.5°C 72% 9.2 mph SSW14.8 kmh SSW 13.9 mph22.4 kmh 29.97 in1014.9 mb 0.00 in0.0 mm 0.00 in0.0 mm 0.00 in0.0 mm
01:14 PM 63.9°F17.7°C 55.0°F12.8°C 73% 5.8 mph SW9.3 kmh SW 14.8 mph23.8 kmh 29.96 in1014.6 mb 0.00 in0.0 mm 0.00 in0.0 mm 0.00 in0.0 mm
01:19 PM 63.7°F17.6°C 54.9°F12.7°C 73% 6.0 mph WNW9.7 kmh WNW 12.8 mph20.6 kmh 29.97 in1014.9 mb 0.00 in0.0 mm 0.00 in0.0 mm 0.00 in0.0 mm
01:24 PM 62.6°F17.0°C 51.4°F10.8°C 67% 5.4 mph W8.7 kmh W 10.5 mph16.9 kmh 29.97 in1014.9 mb 0.00 in0.0 mm 0.00 in0.0 mm 0.00 in0.0 mm
01:29 PM 61.2°F16.2°C 50.2°F10.1°C 67% 4.5 mph NW7.2 kmh NW 8.5 mph13.7 kmh 29.97 in1014.9 mb 0.00 in0.0 mm 0.00 in0.0 mm 0.00 in0.0 mm
01:34 PM 60.4°F15.8°C 50.5°F10.3°C 70% 5.8 mph NW9.3 kmh NW 11.6 mph18.7 kmh 29.97 in1014.9 mb 0.00 in0.0 mm 0.00 in0.0 mm 0.00 in0.0 mm
01:39 PM 59.7°F15.4°C 50.4°F10.2°C 71% 6.9 mph NW11.1 kmh NW 11.6 mph18.7 kmh 29.97 in1014.9 mb 0.00 in0.0 mm 0.00 in0.0 mm 0.00 in0.0 mm
01:44 PM 59.5°F15.3°C 50.5°F10.3°C 72% 4.9 mph W7.9 kmh W 12.8 mph20.6 kmh 29.97 in1014.9 mb 0.00 in0.0 mm 0.00 in0.0 mm 0.00 in0.0 mm
01:49 PM 59.4°F15.2°C 50.7°F10.4°C 73% 4.5 mph NNW7.2 kmh NNW 11.6 mph18.7 kmh 29.97 in1014.9 mb 0.00 in0.0 mm 0.00 in0.0 mm 0.00 in0.0 mm
01:54 PM 59.2°F15.1°C 50.5°F10.3°C 73% 5.6 mph NW9.0 kmh NW 8.5 mph13.7 kmh 29.97 in1014.9 mb 0.00 in0.0 mm 0.00 in0.0 mm 0.00 in0.0 mm
01:59 PM 59.2°F15.1°C 50.2°F10.1°C 72% 4.5 mph W7.2 kmh W 9.6 mph15.4 kmh 29.97 in1014.9 mb 0.00 in0.0 mm 0.00 in0.0 mm 0.00 in0.0 mm
02:04 PM 58.6°F14.8°C 49.3°F9.6°C 71% 5.4 mph WSW8.7 kmh WSW 11.6 mph18.7 kmh 29.97 in1014.9 mb 0.00 in0.0 mm 0.00 in0.0 mm 0.00 in0.0 mm
02:09 PM 58.3°F14.6°C 48.9°F9.4°C 71% 4.3 mph NNW6.9 kmh NNW 11.6 mph18.7 kmh 29.98 in1015.2 mb 0.00 in0.0 mm 0.00 in0.0 mm 0.00 in0.0 mm
02:14 PM 57.6°F14.2°C 49.6°F9.8°C 75% 1.3 mph SW2.1 kmh SW 7.4 mph11.9 kmh 29.98 in1015.2 mb 0.04 in1.0 mm 0.48 in12.2 mm 0.04 in1.0 mm
02:19 PM 55.9°F13.3°C 49.1°F9.5°C 78% 0.4 mph WSW0.6 kmh WSW 10.5 mph16.9 kmh 29.98 in1015.2 mb 0.10 in2.5 mm 0.72 in18.3 mm 0.11 in2.8 mm
02:24 PM 54.9°F12.7°C 48.7°F9.3°C 80% 0.9 mph SSE1.4 kmh SSE 3.1 mph5.0 kmh 29.96 in1014.6 mb 0.13 in3.3 mm 0.36 in9.1 mm 0.13 in3.3 mm
02:29 PM 54.1°F12.3°C 49.1°F9.5°C 83% 1.6 mph S2.6 kmh S 4.3 mph6.9 kmh 29.98 in1015.2 mb 0.14 in3.6 mm 0.12 in3.0 mm 0.14 in3.6 mm
02:34 PM 54.1°F12.3°C 49.8°F9.9°C 85% 2.7 mph SW4.3 kmh SW 4.3 mph6.9 kmh 29.98 in1015.2 mb 0.14 in3.6 mm 0.00 in0.0 mm 0.14 in3.6 mm
02:39 PM 54.0°F12.2°C 49.8°F9.9°C 86% 2.5 mph SSW4.0 kmh SSW 5.4 mph8.7 kmh 29.98 in1015.2 mb 0.14 in3.6 mm 0.00 in0.0 mm 0.14 in3.6 mm
02:44 PM 54.0°F12.2°C 49.8°F9.9°C 86% 3.1 mph SW5.0 kmh SW 6.3 mph10.1 kmh 29.98 in1015.2 mb 0.14 in3.6 mm 0.00 in0.0 mm 0.14 in3.6 mm
02:49 PM 54.0°F12.2°C 50.5°F10.3°C 88% 0.9 mph SW1.4 kmh SW 5.4 mph8.7 kmh 29.98 in1015.2 mb 0.14 in3.6 mm 0.00 in0.0 mm 0.14 in3.6 mm
02:54 PM 54.9°F12.7°C 51.1°F10.6°C 87% 2.9 mph WSW4.7 kmh WSW 5.4 mph8.7 kmh 29.98 in1015.2 mb 0.14 in3.6 mm 0.00 in0.0 mm 0.14 in3.6 mm
02:59 PM 54.9°F12.7°C 51.1°F10.6°C 87% 2.9 mph SW4.7 kmh SW 6.3 mph10.1 kmh 29.98 in1015.2 mb 0.14 in3.6 mm 0.00 in0.0 mm 0.14 in3.6 mm
03:04 PM 55.2°F12.9°C 51.8°F11.0°C 88% 4.7 mph SW7.6 kmh SW 7.4 mph11.9 kmh 29.98 in1015.2 mb 0.14 in3.6 mm 0.00 in0.0 mm 0.14 in3.6 mm
03:09 PM 55.9°F13.3°C 52.2°F11.2°C 87% 5.1 mph SSW8.2 kmh SSW 8.5 mph13.7 kmh 29.98 in1015.2 mb 0.14 in3.6 mm 0.00 in0.0 mm 0.14 in3.6 mm
03:14 PM 56.5°F13.6°C 52.0°F11.1°C 85% 5.4 mph SW8.7 kmh SW 8.5 mph13.7 kmh 29.98 in1015.2 mb 0.10 in2.5 mm 0.00 in0.0 mm 0.14 in3.6 mm
03:19 PM 57.2°F14.0°C 52.3°F11.3°C 84% 4.9 mph SW7.9 kmh SW 9.6 mph15.4 kmh 29.98 in1015.2 mb 0.04 in1.0 mm 0.00 in0.0 mm 0.14 in3.6 mm
03:24 PM 58.3°F14.6°C 53.8°F12.1°C 85% 4.7 mph SW7.6 kmh SW 8.5 mph13.7 kmh 29.98 in1015.2 mb 0.01 in0.3 mm 0.00 in0.0 mm 0.14 in3.6 mm
03:29 PM 58.5°F14.7°C 53.1°F11.7°C 82% 5.6 mph SW9.0 kmh SW 8.5 mph13.7 kmh 29.98 in1015.2 mb 0.00 in0.0 mm 0.00 in0.0 mm 0.14 in3.6 mm
03:34 PM 58.8°F14.9°C 53.4°F11.9°C 82% 4.5 mph SW7.2 kmh SW 7.4 mph11.9 kmh 29.98 in1015.2 mb 0.00 in0.0 mm 0.00 in0.0 mm 0.14 in3.6 mm
03:39 PM 59.2°F15.1°C 53.4°F11.9°C 81% 2.5 mph WSW4.0 kmh WSW 6.3 mph10.1 kmh 29.98 in1015.2 mb 0.00 in0.0 mm 0.00 in0.0 mm 0.14 in3.6 mm
03:44 PM 59.5°F15.3°C 53.8°F12.1°C 81% 4.9 mph SW7.9 kmh SW 8.5 mph13.7 kmh 29.98 in1015.2 mb 0.00 in0.0 mm 0.00 in0.0 mm 0.14 in3.6 mm
03:49 PM 59.7°F15.4°C 53.2°F11.8°C 79% 5.6 mph SW9.0 kmh SW 9.6 mph15.4 kmh 29.98 in1015.2 mb 0.00 in0.0 mm 0.00 in0.0 mm 0.14 in3.6 mm
03:54 PM 59.9°F15.5°C 52.3°F11.3°C 76% 5.6 mph SW9.0 kmh SW 9.6 mph15.4 kmh 29.98 in1015.2 mb 0.00 in0.0 mm 0.00 in0.0 mm 0.14 in3.6 mm
03:59 PM 59.7°F15.4°C 51.4°F10.8°C 74% 4.5 mph W7.2 kmh W 9.6 mph15.4 kmh 29.98 in1015.2 mb 0.00 in0.0 mm 0.00 in0.0 mm 0.14 in3.6 mm
04:04 PM 60.1°F15.6°C 51.1°F10.6°C 72% 4.0 mph WSW6.4 kmh WSW 10.5 mph16.9 kmh 29.98 in1015.2 mb 0.00 in0.0 mm 0.00 in0.0 mm 0.14 in3.6 mm
04:09 PM 60.6°F15.9°C 52.0°F11.1°C 73% 4.5 mph W7.2 kmh W 6.3 mph10.1 kmh 29.99 in1015.6 mb 0.00 in0.0 mm 0.00 in0.0 mm 0.14 in3.6 mm
04:14 PM 60.3°F15.7°C 51.6°F10.9°C 73% 5.6 mph NW9.0 kmh NW 10.5 mph16.9 kmh 29.99 in1015.6 mb 0.00 in0.0 mm 0.00 in0.0 mm 0.14 in3.6 mm
04:19 PM 59.5°F15.3°C 52.0°F11.1°C 76% 6.7 mph WNW10.8 kmh WNW 11.6 mph18.7 kmh 29.99 in1015.6 mb 0.00 in0.0 mm 0.00 in0.0 mm 0.14 in3.6 mm
04:24 PM 59.2°F15.1°C 52.3°F11.3°C 78% 3.1 mph WSW5.0 kmh WSW 10.5 mph16.9 kmh 29.99 in1015.6 mb 0.00 in0.0 mm 0.00 in0.0 mm 0.14 in3.6 mm
04:29 PM 59.7°F15.4°C 53.6°F12.0°C 80% 3.8 mph SW6.1 kmh SW 8.5 mph13.7 kmh 29.99 in1015.6 mb 0.00 in0.0 mm 0.00 in0.0 mm 0.14 in3.6 mm
04:34 PM 59.5°F15.3°C 52.7°F11.5°C 78% 6.0 mph SW9.7 kmh SW 8.5 mph13.7 kmh 30.00 in1015.9 mb 0.00 in0.0 mm 0.00 in0.0 mm 0.14 in3.6 mm
04:39 PM 59.4°F15.2°C 52.9°F11.6°C 79% 4.5 mph WSW7.2 kmh WSW 8.5 mph13.7 kmh 30.00 in1015.9 mb 0.00 in0.0 mm 0.00 in0.0 mm 0.14 in3.6 mm
04:44 PM 59.2°F15.1°C 52.7°F11.5°C 79% 5.6 mph NW9.0 kmh NW 10.5 mph16.9 kmh 29.99 in1015.6 mb 0.00 in0.0 mm 0.00 in0.0 mm 0.14 in3.6 mm
04:49 PM 58.6°F14.8°C 52.5°F11.4°C 80% 4.7 mph WNW7.6 kmh WNW 10.5 mph16.9 kmh 29.99 in1015.6 mb 0.00 in0.0 mm 0.00 in0.0 mm 0.14 in3.6 mm
04:54 PM 58.5°F14.7°C 52.7°F11.5°C 81% 4.5 mph NW7.2 kmh NW 10.5 mph16.9 kmh 29.99 in1015.6 mb 0.00 in0.0 mm 0.00 in0.0 mm 0.14 in3.6 mm
04:59 PM 58.3°F14.6°C 52.9°F11.6°C 82% 3.6 mph NW5.8 kmh NW 8.5 mph13.7 kmh 29.99 in1015.6 mb 0.00 in0.0 mm 0.00 in0.0 mm 0.14 in3.6 mm
05:04 PM 58.3°F14.6°C 52.9°F11.6°C 82% 3.6 mph WSW5.8 kmh WSW 9.6 mph15.4 kmh 29.99 in1015.6 mb 0.00 in0.0 mm 0.00 in0.0 mm 0.14 in3.6 mm
05:09 PM 58.1°F14.5°C 52.7°F11.5°C 82% 3.1 mph WNW5.0 kmh WNW 8.5 mph13.7 kmh 29.99 in1015.6 mb 0.00 in0.0 mm 0.00 in0.0 mm 0.14 in3.6 mm
05:14 PM 58.3°F14.6°C 52.9°F11.6°C 82% 1.3 mph WSW2.1 kmh WSW 5.4 mph8.7 kmh 29.99 in1015.6 mb 0.00 in0.0 mm 0.00 in0.0 mm 0.14 in3.6 mm
05:19 PM 58.1°F14.5°C 52.9°F11.6°C 83% 2.2 mph W3.5 kmh W 8.5 mph13.7 kmh 29.99 in1015.6 mb 0.00 in0.0 mm 0.00 in0.0 mm 0.14 in3.6 mm
05:24 PM 57.9°F14.4°C 52.7°F11.5°C 83% 2.2 mph SW3.5 kmh SW 8.5 mph13.7 kmh 29.99 in1015.6 mb 0.00 in0.0 mm 0.00 in0.0 mm 0.14 in3.6 mm
05:29 PM 57.7°F14.3°C 52.7°F11.5°C 83% 2.9 mph WNW4.7 kmh WNW 7.4 mph11.9 kmh 29.99 in1015.6 mb 0.00 in0.0 mm 0.00 in0.0 mm 0.14 in3.6 mm
05:34 PM 57.7°F14.3°C 52.7°F11.5°C 83% 1.8 mph W2.9 kmh W 6.3 mph10.1 kmh 29.99 in1015.6 mb 0.00 in0.0 mm 0.00 in0.0 mm 0.14 in3.6 mm
05:39 PM 57.7°F14.3°C 52.7°F11.5°C 83% 3.6 mph NNW5.8 kmh NNW 5.4 mph8.7 kmh 29.99 in1015.6 mb 0.00 in0.0 mm 0.00 in0.0 mm 0.14 in3.6 mm
05:44 PM 57.7°F14.3°C 52.9°F11.6°C 84% 4.3 mph NW6.9 kmh NW 7.4 mph11.9 kmh 29.99 in1015.6 mb 0.00 in0.0 mm 0.00 in0.0 mm 0.14 in3.6 mm
05:49 PM 57.6°F14.2°C 52.7°F11.5°C 84% 3.8 mph NW6.1 kmh NW 8.5 mph13.7 kmh 29.99 in1015.6 mb 0.00 in0.0 mm 0.00 in0.0 mm 0.14 in3.6 mm
05:54 PM 57.4°F14.1°C 52.5°F11.4°C 84% 3.6 mph NW5.8 kmh NW 8.5 mph13.7 kmh 29.99 in1015.6 mb 0.00 in0.0 mm 0.00 in0.0 mm 0.14 in3.6 mm
05:59 PM 57.0°F13.9°C 52.2°F11.2°C 84% 3.1 mph W5.0 kmh W 7.4 mph11.9 kmh 29.99 in1015.6 mb 0.00 in0.0 mm 0.00 in0.0 mm 0.14 in3.6 mm
06:04 PM 57.0°F13.9°C 52.2°F11.2°C 84% 0.9 mph W1.4 kmh W 4.3 mph6.9 kmh 30.00 in1015.9 mb 0.00 in0.0 mm 0.00 in0.0 mm 0.14 in3.6 mm
06:09 PM 56.8°F13.8°C 52.0°F11.1°C 84% 1.8 mph W2.9 kmh W 5.4 mph8.7 kmh 30.00 in1015.9 mb 0.00 in0.0 mm 0.00 in0.0 mm 0.14 in3.6 mm
06:14 PM 56.7°F13.7°C 52.2°F11.2°C 85% 0.9 mph WSW1.4 kmh WSW 3.1 mph5.0 kmh 30.00 in1015.9 mb 0.00 in0.0 mm 0.00 in0.0 mm 0.14 in3.6 mm
06:19 PM 56.7°F13.7°C 52.2°F11.2°C 85% Calm Calm -- 30.00 in1015.9 mb 0.00 in0.0 mm 0.00 in0.0 mm 0.14 in3.6 mm
06:24 PM 56.5°F13.6°C 52.3°F11.3°C 86% 1.6 mph W2.6 kmh W 3.1 mph5.0 kmh 30.00 in1015.9 mb 0.00 in0.0 mm 0.00 in0.0 mm 0.14 in3.6 mm
06:29 PM 56.5°F13.6°C 52.3°F11.3°C 86% 1.1 mph W1.8 kmh W 3.1 mph5.0 kmh 30.00 in1015.9 mb 0.00 in0.0 mm 0.00 in0.0 mm 0.14 in3.6 mm
06:34 PM 56.5°F13.6°C 52.3°F11.3°C 86% 0.4 mph NW0.6 kmh NW 2.0 mph3.2 kmh 30.01 in1016.3 mb 0.00 in0.0 mm 0.00 in0.0 mm 0.14 in3.6 mm
06:39 PM 56.5°F13.6°C 52.3°F11.3°C 86% 1.3 mph NW2.1 kmh NW 3.1 mph5.0 kmh 30.01 in1016.3 mb 0.00 in0.0 mm 0.00 in0.0 mm 0.14 in3.6 mm
06:44 PM 56.3°F13.5°C 52.5°F11.4°C 87% 1.3 mph NW2.1 kmh NW 3.1 mph5.0 kmh 30.01 in1016.3 mb 0.00 in0.0 mm 0.00 in0.0 mm 0.14 in3.6 mm
06:49 PM 56.1°F13.4°C 52.0°F11.1°C 86% 2.0 mph NW3.2 kmh NW 5.4 mph8.7 kmh 30.01 in1016.3 mb 0.00 in0.0 mm 0.00 in0.0 mm 0.14 in3.6 mm
06:54 PM 56.1°F13.4°C 52.0°F11.1°C 86% 1.8 mph W2.9 kmh W 5.4 mph8.7 kmh 30.01 in1016.3 mb 0.00 in0.0 mm 0.00 in0.0 mm 0.14 in3.6 mm
06:59 PM 55.9°F13.3°C 51.8°F11.0°C 86% 1.8 mph NW2.9 kmh NW 5.4 mph8.7 kmh 30.01 in1016.3 mb 0.00 in0.0 mm 0.00 in0.0 mm 0.14 in3.6 mm
07:04 PM 55.8°F13.2°C 51.6°F10.9°C 86% 2.9 mph WNW4.7 kmh WNW 6.3 mph10.1 kmh 30.01 in1016.3 mb 0.00 in0.0 mm 0.00 in0.0 mm 0.14 in3.6 mm
07:09 PM 55.8°F13.2°C 51.6°F10.9°C 86% 1.6 mph W2.6 kmh W 6.3 mph10.1 kmh 30.01 in1016.3 mb 0.00 in0.0 mm 0.00 in0.0 mm 0.14 in3.6 mm
07:14 PM 55.6°F13.1°C 51.4°F10.8°C 86% 0.9 mph WNW1.4 kmh WNW 3.1 mph5.0 kmh 30.01 in1016.3 mb 0.00 in0.0 mm 0.00 in0.0 mm 0.14 in3.6 mm
07:19 PM 55.4°F13.0°C 51.6°F10.9°C 87% Calm Calm 2.0 mph3.2 kmh 30.01 in1016.3 mb 0.00 in0.0 mm 0.00 in0.0 mm 0.14 in3.6 mm
07:24 PM 55.2°F12.9°C 51.4°F10.8°C 87% 1.6 mph WSW2.6 kmh WSW 3.1 mph5.0 kmh 30.01 in1016.3 mb 0.00 in0.0 mm 0.00 in0.0 mm 0.14 in3.6 mm
07:29 PM 55.2°F12.9°C 51.4°F10.8°C 87% 2.0 mph W3.2 kmh W 3.1 mph5.0 kmh 30.01 in1016.3 mb 0.00 in0.0 mm 0.00 in0.0 mm 0.14 in3.6 mm
07:34 PM 55.2°F12.9°C 51.4°F10.8°C 87% 0.4 mph NW0.6 kmh NW 2.0 mph3.2 kmh 30.02 in1016.6 mb 0.00 in0.0 mm 0.00 in0.0 mm 0.14 in3.6 mm
07:39 PM 55.0°F12.8°C 51.3°F10.7°C 87% 0.4 mph W0.6 kmh W 3.1 mph5.0 kmh 30.02 in1016.6 mb 0.00 in0.0 mm 0.00 in0.0 mm 0.14 in3.6 mm
07:44 PM 55.0°F12.8°C 51.6°F10.9°C 88% 0.7 mph SW1.1 kmh SW 3.1 mph5.0 kmh 30.02 in1016.6 mb 0.00 in0.0 mm 0.00 in0.0 mm 0.14 in3.6 mm
07:49 PM 54.9°F12.7°C 51.4°F10.8°C 88% Calm Calm 2.0 mph3.2 kmh 30.02 in1016.6 mb 0.00 in0.0 mm 0.00 in0.0 mm 0.14 in3.6 mm
07:54 PM 54.9°F12.7°C 51.4°F10.8°C 88% Calm Calm 1.1 mph1.8 kmh 30.02 in1016.6 mb 0.00 in0.0 mm 0.00 in0.0 mm 0.14 in3.6 mm
07:59 PM 54.7°F12.6°C 51.3°F10.7°C 88% Calm Calm -- 30.02 in1016.6 mb 0.00 in0.0 mm 0.00 in0.0 mm 0.14 in3.6 mm
08:04 PM 54.7°F12.6°C 51.4°F10.8°C 89% 0.7 mph W1.1 kmh W 2.0 mph3.2 kmh 30.03 in1016.9 mb 0.00 in0.0 mm 0.00 in0.0 mm 0.14 in3.6 mm
08:09 PM 54.7°F12.6°C 51.4°F10.8°C 89% Calm Calm 2.0 mph3.2 kmh 30.03 in1016.9 mb 0.00 in0.0 mm 0.00 in0.0 mm 0.14 in3.6 mm
08:14 PM 54.5°F12.5°C 51.3°F10.7°C 89% Calm Calm 1.1 mph1.8 kmh 30.03 in1016.9 mb 0.00 in0.0 mm 0.00 in0.0 mm 0.14 in3.6 mm
08:19 PM 54.3°F12.4°C 51.1°F10.6°C 89% Calm Calm -- 30.03 in1016.9 mb 0.00 in0.0 mm 0.00 in0.0 mm 0.14 in3.6 mm
08:24 PM 54.1°F12.3°C 50.9°F10.5°C 89% Calm Calm -- 30.03 in1016.9 mb 0.00 in0.0 mm 0.00 in0.0 mm 0.14 in3.6 mm
08:29 PM 54.0°F12.2°C 50.7°F10.4°C 89% Calm Calm -- 30.03 in1016.9 mb 0.00 in0.0 mm 0.00 in0.0 mm 0.14 in3.6 mm
08:34 PM 54.0°F12.2°C 51.1°F10.6°C 90% Calm Calm -- 30.03 in1016.9 mb 0.00 in0.0 mm 0.00 in0.0 mm 0.14 in3.6 mm
08:39 PM 54.0°F12.2°C 51.1°F10.6°C 90% Calm Calm -- 30.03 in1016.9 mb 0.00 in0.0 mm 0.00 in0.0 mm 0.14 in3.6 mm
08:44 PM 54.0°F12.2°C 51.1°F10.6°C 90% Calm Calm -- 30.03 in1016.9 mb 0.00 in0.0 mm 0.00 in0.0 mm 0.14 in3.6 mm
08:49 PM 53.8°F12.1°C 50.9°F10.5°C 90% Calm Calm -- 30.03 in1016.9 mb 0.00 in0.0 mm 0.00 in0.0 mm 0.14 in3.6 mm
08:54 PM 53.8°F12.1°C 50.9°F10.5°C 90% Calm Calm -- 30.04 in1017.3 mb 0.00 in0.0 mm 0.00 in0.0 mm 0.14 in3.6 mm
08:59 PM 53.8°F12.1°C 50.9°F10.5°C 90% Calm Calm -- 30.04 in1017.3 mb 0.00 in0.0 mm 0.00 in0.0 mm 0.14 in3.6 mm
09:04 PM 53.6°F12.0°C 50.7°F10.4°C 90% Calm Calm -- 30.04 in1017.3 mb 0.00 in0.0 mm 0.00 in0.0 mm 0.14 in3.6 mm
09:09 PM 53.8°F12.1°C 50.9°F10.5°C 90% Calm Calm 1.1 mph1.8 kmh 30.04 in1017.3 mb 0.00 in0.0 mm 0.00 in0.0 mm 0.14 in3.6 mm
09:14 PM 53.8°F12.1°C 50.9°F10.5°C 90% Calm Calm -- 30.04 in1017.3 mb 0.00 in0.0 mm 0.00 in0.0 mm 0.14 in3.6 mm
09:19 PM 53.8°F12.1°C 50.9°F10.5°C 90% Calm Calm -- 30.04 in1017.3 mb 0.00 in0.0 mm 0.00 in0.0 mm 0.14 in3.6 mm
09:24 PM 53.8°F12.1°C 50.9°F10.5°C 90% Calm Calm -- 30.05 in1017.6 mb 0.00 in0.0 mm 0.00 in0.0 mm 0.14 in3.6 mm
09:29 PM 54.0°F12.2°C 51.1°F10.6°C 90% Calm Calm -- 30.04 in1017.3 mb 0.00 in0.0 mm 0.00 in0.0 mm 0.14 in3.6 mm
09:34 PM 54.0°F12.2°C 51.1°F10.6°C 90% 0.2 mph SW0.3 kmh SW 1.1 mph1.8 kmh 30.04 in1017.3 mb 0.00 in0.0 mm 0.00 in0.0 mm 0.14 in3.6 mm
09:39 PM 54.0°F12.2°C 51.1°F10.6°C 90% Calm Calm -- 30.04 in1017.3 mb 0.00 in0.0 mm 0.00 in0.0 mm 0.14 in3.6 mm
09:44 PM 54.0°F12.2°C 51.1°F10.6°C 90% Calm Calm 1.1 mph1.8 kmh 30.04 in1017.3 mb 0.00 in0.0 mm 0.00 in0.0 mm 0.14 in3.6 mm
09:49 PM 54.0°F12.2°C 51.1°F10.6°C 90% Calm Calm 1.1 mph1.8 kmh 30.04 in1017.3 mb 0.00 in0.0 mm 0.00 in0.0 mm 0.14 in3.6 mm
09:54 PM 53.8°F12.1°C 50.9°F10.5°C 90% Calm Calm -- 30.05 in1017.6 mb 0.00 in0.0 mm 0.00 in0.0 mm 0.14 in3.6 mm
09:59 PM 53.8°F12.1°C 50.9°F10.5°C 90% Calm Calm 1.1 mph1.8 kmh 30.04 in1017.3 mb 0.00 in0.0 mm 0.00 in0.0 mm 0.14 in3.6 mm
10:04 PM 53.8°F12.1°C 50.9°F10.5°C 90% 0.2 mph WSW0.3 kmh WSW 1.1 mph1.8 kmh 30.04 in1017.3 mb 0.00 in0.0 mm 0.00 in0.0 mm 0.14 in3.6 mm
10:09 PM 53.6°F12.0°C 50.7°F10.4°C 90% 0.2 mph SW0.3 kmh SW 1.1 mph1.8 kmh 30.04 in1017.3 mb 0.00 in0.0 mm 0.00 in0.0 mm 0.14 in3.6 mm
10:14 PM 53.4°F11.9°C 50.5°F10.3°C 90% Calm Calm -- 30.04 in1017.3 mb 0.00 in0.0 mm 0.00 in0.0 mm 0.14 in3.6 mm
10:19 PM 53.4°F11.9°C 50.5°F10.3°C 90% Calm Calm -- 30.04 in1017.3 mb 0.00 in0.0 mm 0.00 in0.0 mm 0.14 in3.6 mm
10:24 PM 53.4°F11.9°C 50.5°F10.3°C 90% Calm Calm -- 30.04 in1017.3 mb 0.00 in0.0 mm 0.00 in0.0 mm 0.14 in3.6 mm
10:29 PM 53.2°F11.8°C 50.4°F10.2°C 90% Calm Calm -- 30.04 in1017.3 mb 0.00 in0.0 mm 0.00 in0.0 mm 0.14 in3.6 mm
10:34 PM 53.2°F11.8°C 50.4°F10.2°C 90% Calm Calm -- 30.04 in1017.3 mb 0.00 in0.0 mm 0.00 in0.0 mm 0.14 in3.6 mm
10:39 PM 53.2°F11.8°C 50.7°F10.4°C 91% Calm Calm -- 30.04 in1017.3 mb 0.00 in0.0 mm 0.00 in0.0 mm 0.14 in3.6 mm
10:44 PM 53.2°F11.8°C 50.7°F10.4°C 91% Calm Calm -- 30.04 in1017.3 mb 0.00 in0.0 mm 0.00 in0.0 mm 0.14 in3.6 mm
10:49 PM 53.2°F11.8°C 50.7°F10.4°C 91% Calm Calm -- 30.04 in1017.3 mb 0.00 in0.0 mm 0.00 in0.0 mm 0.14 in3.6 mm
10:54 PM 53.2°F11.8°C 50.7°F10.4°C 91% Calm Calm -- 30.04 in1017.3 mb 0.00 in0.0 mm 0.00 in0.0 mm 0.14 in3.6 mm
10:59 PM 53.1°F11.7°C 50.5°F10.3°C 91% Calm Calm -- 30.05 in1017.6 mb 0.00 in0.0 mm 0.00 in0.0 mm 0.14 in3.6 mm
11:04 PM 53.1°F11.7°C 50.5°F10.3°C 91% Calm Calm -- 30.05 in1017.6 mb 0.00 in0.0 mm 0.00 in0.0 mm 0.14 in3.6 mm
11:09 PM 52.9°F11.6°C 50.4°F10.2°C 91% Calm Calm -- 30.05 in1017.6 mb 0.00 in0.0 mm 0.00 in0.0 mm 0.14 in3.6 mm
11:14 PM 52.9°F11.6°C 50.4°F10.2°C 91% Calm Calm -- 30.05 in1017.6 mb 0.00 in0.0 mm 0.00 in0.0 mm 0.14 in3.6 mm
11:19 PM 53.1°F11.7°C 50.5°F10.3°C 91% Calm Calm -- 30.05 in1017.6 mb 0.00 in0.0 mm 0.00 in0.0 mm 0.14 in3.6 mm
11:24 PM 53.1°F11.7°C 50.5°F10.3°C 91% Calm Calm -- 30.05 in1017.6 mb 0.00 in0.0 mm 0.00 in0.0 mm 0.14 in3.6 mm
11:29 PM 53.1°F11.7°C 50.5°F10.3°C 91% Calm Calm -- 30.05 in1017.6 mb 0.00 in0.0 mm 0.00 in0.0 mm 0.14 in3.6 mm
11:34 PM 53.1°F11.7°C 50.7°F10.4°C 92% Calm Calm -- 30.05 in1017.6 mb 0.00 in0.0 mm 0.00 in0.0 mm 0.14 in3.6 mm
11:39 PM 52.9°F11.6°C 50.4°F10.2°C 91% Calm Calm -- 30.05 in1017.6 mb 0.00 in0.0 mm 0.00 in0.0 mm 0.14 in3.6 mm
11:44 PM 52.5°F11.4°C 50.0°F10.0°C 91% Calm Calm -- 30.05 in1017.6 mb 0.00 in0.0 mm 0.00 in0.0 mm 0.14 in3.6 mm
11:49 PM 52.5°F11.4°C 50.2°F10.1°C 92% Calm Calm -- 30.05 in1017.6 mb 0.00 in0.0 mm 0.00 in0.0 mm 0.14 in3.6 mm
11:54 PM 52.7°F11.5°C 50.4°F10.2°C 92% Calm Calm -- 30.05 in1017.6 mb 0.00 in0.0 mm 0.00 in0.0 mm 0.14 in3.6 mm
11:59 PM 52.9°F11.6°C 50.5°F10.3°C 92% 0.4 mph NW0.6 kmh NW 3.1 mph5.0 kmh 30.05 in1017.6 mb 0.00 in0.0 mm 0.00 in0.0 mm 0.14 in3.6 mm